Tiempo atmosférico en la estación meteorológica de Andújar, Jaén (193 m.)



Fecha
DESCASC
Temp. máxima en grados centígrados (hora)
DESCASC
Temp. mínima en grados centígrados (hora)
DESCASC
Temp. media en grados centígrados
DESCASC
Racha de viento máxima en m/sg (hora)
DESCASC
Velocidad máxima media en intervalos de 10 minutos(hora)
DESCASC
Precipitaciones diarias en mm
DESCASC
Precipitaciones de 00:00 a 06:00 en mm
DESCASC
Precipitaciones de 06:00 a 12:00 en mm
DESCASC
Precipitaciones de 12:00 a 18:00 en mm
DESCASC
Precipitaciones de 18:00 a 24:00 en mm
DESCASC
28-02-2021 20 (15:00) 5.3 (07:30) 12.7 6.11 (11:50) 3.06 (11:50) 0 0 0 0 0
27-02-2021 17.5 (14:40) 6.2 (08:30) 11.8 4.72 (15:10) 2.5 (15:10) 0 0 0 0 0
26-02-2021 -- (--) -- (--) -- -- (--) -- (--) -- 0 -- -- 0
25-02-2021 19.8 (13:40) 4.1 (00:00) 11.9 5.28 (15:00) 3.61 (15:10) 0 0 0 0 0
24-02-2021 21.9 (17:00) 5.6 (00:00) 13.7 8.89 (12:40) 4.44 (12:40) 0 0 0 0 0
23-02-2021 18.7 (17:00) 0.3 (00:00) 9.5 5.56 (15:00) 2.78 (10:30) 0 0 0 0 0
22-02-2021 14.3 (17:00) 3 (00:00) 8.7 8.33 (15:50) 4.72 (15:50) 0 0 0 0 0
21-02-2021 13.2 (14:00) 7.2 (00:00) 10.2 11.11 (19:10) 7.22 (19:30) 9.7 0 0 8.1 1.6
20-02-2021 22.4 (17:20) 2.8 (00:00) 12.6 5.28 (16:00) 3.61 (16:00) 0 0 0 0 0
19-02-2021 21.9 (15:10) 5.4 (00:00) 13.6 5.56 (20:00) 3.89 (20:00) 0 0 0 0 0
18-02-2021 20.2 (16:40) 2 (00:00) 11.1 6.67 (14:50) 3.89 (14:40) 0 0 0 0 0
17-02-2021 24.4 (17:40) 2.1 (00:00) 13.2 3.89 (12:10) 1.94 (12:10) 0 0 0 0 0
16-02-2021 20.8 (15:30) 1.2 (00:00) 11 3.61 (12:00) 1.67 (11:10) 0 0 0 0 0
15-02-2021 20.4 (17:40) 4.4 (00:00) 12.4 5.83 (10:30) 2.78 (14:50) 0 0 0 0 0
14-02-2021 23.3 (17:30) 3.5 (00:00) 13.4 5.28 (10:20) 3.06 (10:40) 0 0 0 0 0
13-02-2021 19.6 (15:50) 3.3 (00:00) 11.5 3.33 (12:40) 1.67 (10:50) 0 0 0 0 0
12-02-2021 18.7 (15:50) 7.5 (00:00) 13.1 8.89 (14:50) 6.11 (14:30) 1.7 0.3 1.4 0 0
11-02-2021 18.8 (15:50) 12.3 (00:00) 15.5 5 (17:40) 3.61 (18:10) 2.1 1.6 0.5 0 0
10-02-2021 15.9 (16:50) 10.9 (00:00) 13.4 13.61 (00:20) 7.22 (00:30) 20.4 0 17.5 0.3 2.6
09-02-2021 14.6 (13:10) 9.5 (00:00) 12.1 19.17 (17:20) 9.72 (14:20) 11.6 0 0.5 1.7 9.4
08-02-2021 13.9 (13:40) 9.1 (00:00) 11.5 12.5 (07:10) 7.22 (14:20) 11.5 2.3 6.8 2.4 0
07-02-2021 14.4 (15:10) 8.4 (00:00) 11.4 11.11 (18:10) 6.67 (17:10) 0 0 0 0 0
06-02-2021 12.9 (15:50) 8 (00:00) 10.4 9.44 (07:20) 6.11 (07:10) 2.5 1 0.2 1.3 0
05-02-2021 18.7 (15:10) 4.8 (00:00) 11.8 11.39 (17:50) 7.78 (17:50) 2 0 0 0 2
04-02-2021 17.3 (14:10) 5.6 (00:00) 11.4 8.61 (14:30) 5.28 (14:30) 0 0 0 0 0
03-02-2021 15.8 (16:50) 5.1 (00:00) 10.5 3.89 (15:40) 2.78 (17:30) 0 0 0 0 0
02-02-2021 15 (15:40) 6.5 (00:00) 10.8 4.72 (17:00) 3.33 (17:00) 0 0 0 0 0
01-02-2021 18.1 (15:20) 12.3 (00:00) 15.2 8.33 (02:00) 5.83 (02:00) 0.2 0.2 0 0 0

Gráficas

Temp. máximas Temp. mínimas Temp. medias Precipitaciones Rachas de viento máximas Velocidades máximas media en intervalos de 10 minutos

Datos horarios

Fecha y hora oficial Temperatura (ºC) Velocidad del viento (km/h) Dirección del viento Racha (km/h) Dirección de racha Precipitación (mm) Presión (hPa) Tendencia (hPa) Humedad (%)
2021-03-02 23:00:00 -- -- -- -- -- -- -- -- --
2021-03-02 22:00:00 -- -- -- -- -- -- -- -- --
2021-03-02 21:00:00 -- -- -- -- -- -- -- -- --
2021-03-02 20:00:00 -- -- -- -- -- -- -- -- --
2021-03-02 19:00:00 -- -- -- -- -- -- -- -- --
2021-03-02 18:00:00 -- -- -- -- -- -- -- -- --
2021-03-02 17:00:00 -- -- -- -- -- -- -- -- --
2021-03-02 16:00:00 19.2 7 Este 19 Este 0 997.9 -1.5 38
2021-03-02 15:00:00 19.6 8 Este 18 Este 0 998.4 -1.8 39
2021-03-02 14:00:00 18.9 5 Sudeste 17 Este 0 998.9 -1.3 42
2021-03-02 13:00:00 17.9 3 Este 14 Este 0 999.4 -0.4 46
2021-03-02 12:00:00 15.8 6 Sudeste 13 Sudeste 0 1000.2 1 52
2021-03-02 11:00:00 13.6 6 Sudeste 14 Sudeste 0 1000.2 2.1 63
2021-03-02 10:00:00 11.4 9 Este 14 Este 0 999.8 2.1 72
2021-03-02 09:00:00 7.4 0 Calma 2 Este 0 999.2 1.9 98
2021-03-02 08:00:00 5.9 0 Calma 3 Este 0 998.1 1.2 98
2021-03-02 07:00:00 6.7 0 Calma 4 Oeste 0 997.7 1.1 98
2021-03-02 06:00:00 7.3 0 Calma 6 Noroeste 0 997.3 0.8 95
2021-03-02 05:00:00 9.3 2 Sudeste 12 Sudeste 0 996.9 -- 85
2021-03-02 04:00:00 9.3 2 Sudeste 9 Sudeste 0 996.6 -- 84
2021-03-02 03:00:00 10.2 2 Sudeste 7 Sur 0 996.5 -- 80
2021-03-02 02:00:00 10.7 2 Sudeste 10 Sudeste 0 996.1 -- 80
2021-03-02 01:00:00 11.7 5 Sudeste 9 Este 0 995.9 -- 74
2021-03-02 00:00:00 12.8 6 Este 12 Sudeste 0 995.6 -- 70
2021-03-01 23:00:00 13.1 7 Este 12 Este 0 995.3 -- 70
2021-03-01 22:00:00 13.2 6 Sudeste 10 Este 0 994.9 -- 70
2021-03-01 21:00:00 12.9 0 Calma 5 Sudeste 0 993.9 -- 72
2021-03-01 20:00:00 13.3 0 Calma 6 Este 0 993.8 -- 68
2021-03-01 19:00:00 15.5 3 Este 14 Este 0 993.3 -- 54
2021-03-01 18:00:00 17.4 8 Sudeste 19 Este 0 992.5 -- 45
2021-03-01 17:00:00 18.3 6 Este 17 Este 0 992.1 -- 44
2021-03-01 16:00:00 18.4 11 Este 21 Este 0 992.1 -- 42
2021-03-01 15:00:00 18.6 6 Este 29 Sudeste 0 992.1 -- 42
2021-03-01 14:00:00 18.2 15 Este 30 Este 0 992.5 -- 44
2021-03-01 13:00:00 17.4 15 Este 28 Sudeste 0 993.1 -- 47
2021-03-01 12:00:00 16.4 18 Este 32 Este 0 993.7 -- 51
2021-03-01 11:00:00 15.3 11 Este 33 Sudeste 0 993.8 -- 54
2021-03-01 10:00:00 12.8 9 Este 15 Este 0 993.9 -- 67
2021-03-01 09:00:00 10.6 6 Este 11 Sudeste 0 993.7 -- 81
2021-03-01 08:00:00 8.1 0 Calma 5 Este 0 993.3 -- 92
2021-03-01 07:00:00 9.8 0 Calma 9 Este 0 993.1 -- 83
2021-03-01 06:00:00 10.6 4 Este 18 Este 0 993.1 -- 77
2021-03-01 05:00:00 11.1 9 Este 17 Sudeste 0 993.2 -- 70
2021-03-01 04:00:00 11.4 5 Este 12 Sur 0 993.2 -- 68
2021-03-01 03:00:00 10.2 2 Sur 10 Sudeste 0 993.5 -- 74
2021-03-01 02:00:00 11.2 4 Sudeste 18 Sudeste 0 993.6 -- 67
2021-03-01 01:00:00 11.1 8 Este 21 Este 0 993.2 -- 65
2021-03-01 00:00:00 11.6 6 Este 19 Este 0 993.1 -- 63
2021-02-28 23:00:00 10.7 8 Este 13 Sudeste 0 993.1 -- 66
2021-02-28 22:00:00 12.5 5 Este 13 Este 0 992.7 -- 59
2021-02-28 21:00:00 12.5 6 Este 13 Este 0 992.4 -- 57
2021-02-28 20:00:00 12.7 3 Este 17 Sudeste 0 991.9 -- 55
2021-02-28 19:00:00 15 5 Este 11 Sudeste 0 991.4 -- 46
2021-02-28 18:00:00 17.7 6 Este 18 Nordeste 0 991.1 -- 37
2021-02-28 17:00:00 19.5 3 Este 17 Este 0 991.2 -- 34
2021-02-28 16:00:00 18.9 5 Este 16 Este 0 991.6 -- 34
2021-02-28 15:00:00 18.9 4 Este 19 Este 0 992.3 -- 35
2021-02-28 14:00:00 17.5 7 Sudeste 19 Este 0 993.1 -- 38
2021-02-28 13:00:00 16.9 6 Este 20 Sudeste 0 994.1 -- 40
2021-02-28 12:00:00 15.6 8 Este 22 Este 0 994.8 -- 44
2021-02-28 11:00:00 13.8 8 Este 16 Este 0 995.2 -- 50
2021-02-28 10:00:00 11.1 2 Sudeste 9 Este 0 995.4 -- 81
2021-02-28 09:00:00 7.6 2 Este 6 Este 0 995.6 -- 98
2021-02-28 08:00:00 5.8 5 Este 8 Sudeste 0 995.1 -- 98
2021-02-28 07:00:00 5.8 0 Calma 4 Este 0 995 -- 98
2021-02-28 06:00:00 6.3 0 Calma 6 Este 0 995 -- 98
2021-02-28 05:00:00 7 0 Calma 4 Sur 0 994.7 -- 98
2021-02-28 04:00:00 7.7 0 Calma 4 Sur 0 995 -- 98
2021-02-28 03:00:00 8.8 0 Calma 6 Sudoeste 0 995.4 -- 98
2021-02-28 02:00:00 9.1 0 Calma 3 Sudoeste 0 995.7 -- 96
2021-02-28 01:00:00 9.7 0 Calma 4 Sudoeste 0 995.6 -- 93
2021-02-28 00:00:00 9.9 0 Calma 4 Sudoeste 0 995.5 -- 90
2021-02-27 23:00:00 10.9 0 Calma 9 Sudoeste 0 995.4 -- 84
2021-02-27 22:00:00 12.3 7 Sudoeste 10 Sudoeste 0 995.2 -- 77
2021-02-27 21:00:00 12 3 Oeste 10 Noroeste 0 995.1 -- 76
2021-02-27 20:00:00 12.8 6 Noroeste 11 Noroeste 0 995.1 -- 67
2021-02-27 19:00:00 13.7 4 Sudoeste 10 Sur 0 995 -- 59
2021-02-27 18:00:00 16 2 Sudeste 10 Sudeste 0 995 -- 47
2021-02-27 17:00:00 16.2 5 Este 15 Este 0 995.2 -- 47
2021-02-27 16:00:00 16 8 Este 17 Este 0 995.9 -- 45
2021-02-27 15:00:00 15.7 6 Este 13 Este 0 996.6 -- 50
2021-02-27 14:00:00 15.2 7 Este 15 Este 0 997.6 -- 53
2021-02-27 13:00:00 15.6 5 Este 15 Este 0 998.4 -- 55
2021-02-27 12:00:00 13.7 5 Este 13 Este 0 999.1 -- 63
2021-02-27 11:00:00 10.9 4 Este 9 Este 0 999.7 -- 87
2021-02-27 10:00:00 9.2 0 Calma 3 Oeste 0 999.9 -- 98
2021-02-27 09:00:00 7.2 0 Calma 3 Este 0 999.9 -- 98
2021-02-27 08:00:00 6.6 0 Calma -- -- -- 999.4 -- 98
2021-02-27 07:00:00 7 0 Calma -- -- 0 999.3 -- 98
2021-02-27 06:00:00 7.2 0 Calma -- -- 0 999.3 -- 98
2021-02-27 05:00:00 7.9 0 Calma 0 Calma 0 999.3 -- 98
2021-02-27 04:00:00 8.2 0 Calma 10 Sudoeste 0 999.3 -- 96
2021-02-27 03:00:00 9.7 4 Sudoeste 10 Sudoeste 0 999.7 -- 97
2021-02-27 02:00:00 8.3 0 Calma -- -- 0 1000.1 -- 98
2021-02-27 01:00:00 8.6 0 Calma -- -- 0 1000.4 -- 97
2021-02-27 00:00:00 9.2 0 Calma -- -- 0 1000.4 -- 94
2021-02-26 23:00:00 10.2 0 Calma -- -- 0 1000.3 -- 90
2021-02-26 22:00:00 11.3 0 Calma 7 Noroeste 0 999.7 -- 81
2021-02-26 21:00:00 12.9 4 Oeste 18 Oeste 0 998.8 -- 69
2021-02-26 20:00:00 15.8 12 Oeste 18 Oeste 0 998.5 -- 53
2021-02-26 19:00:00 16.3 10 Oeste 15 Oeste 0 998.2 -- 47
2021-02-26 18:00:00 20.8 3 Oeste 12 Oeste 0 998 -- 32
2021-02-26 17:00:00 21.4 2 Sudeste 9 Este 0 998 -- 30
2021-02-26 16:00:00 21 3 Nordeste 11 Sudeste 0 998.4 -- 32
2021-02-26 15:00:00 21.1 4 Sur 13 Este 0 999.1 -- 33
2021-02-26 14:00:00 20 3 Este -- -- -- 999.8 -- 34
2021-02-26 13:00:00 -- -- -- -- -- -- -- -- --
2021-02-26 12:00:00 -- -- -- -- -- -- -- -- --
2021-02-26 11:00:00 15.9 9 Este 21 Este 0 1001.2 -- 48
2021-02-26 10:00:00 12.8 8 Este 17 Este 0 1001.2 -- 62
2021-02-26 09:00:00 10.5 9 Sudeste 15 Sudeste 0 1000.6 -- 71
2021-02-26 08:00:00 7.6 4 Este 11 Este 0 999.9 -- 82
2021-02-26 07:00:00 7.1 3 Este 10 Este 0 999.7 -- 86
2021-02-26 06:00:00 8.8 5 Este 10 Este 0 999.5 -- 79
2021-02-26 05:00:00 8 5 Este 10 Sudeste 0 999.6 -- 85
2021-02-26 04:00:00 7.9 2 Este 10 Este 0 999.9 -- 91
2021-02-26 03:00:00 7.6 0 Calma 2 Sudeste 0 1000.1 -- 98
2021-02-26 02:00:00 8.4 0 Calma 3 Este 0 1000.6 -- 98
2021-02-26 01:00:00 8.9 0 Calma 3 Sudoeste 0 1000.7 -- 97
2021-02-26 00:00:00 9.2 0 Calma 6 Este 0 1000.7 -- 96
2021-02-25 23:00:00 10.1 3 Este 6 Este 0 1000.8 -- 94
2021-02-25 22:00:00 10.8 2 Sudeste 6 Este 0 1000.6 -- 88
2021-02-25 21:00:00 13.2 0 Calma 11 Sudoeste 0 1000.2 -- 70
2021-02-25 20:00:00 15 5 Sudoeste 14 Sudoeste 0 1000.2 -- 61
2021-02-25 19:00:00 15.6 8 Oeste 13 Oeste 0 999.5 -- 56
2021-02-25 18:00:00 16.4 8 Oeste 15 Oeste 0 999.3 -- 50
2021-02-25 17:00:00 17 9 Oeste 14 Oeste 0 999.3 -- 46
2021-02-25 16:00:00 18 10 Oeste 17 Oeste 0 999.6 -- 44
2021-02-25 15:00:00 18.4 11 Oeste 19 Oeste 0 999.8 -- 42
2021-02-25 14:00:00 18.5 0 Calma 11 Sudoeste 0 1000.5 -- 40
2021-02-25 13:00:00 17.9 2 Sudeste 12 Sudeste 0 1001.4 -- 40
2021-02-25 12:00:00 16.4 6 Este 17 Sudeste 0 1001.9 -- 47
2021-02-25 11:00:00 13.9 6 Este 12 Sudeste 0 1002.3 -- 54
2021-02-25 10:00:00 11.4 5 Oeste 8 Noroeste 0 1002.6 -- 71
2021-02-25 09:00:00 7.3 0 Calma 6 Sudeste 0 1002.1 -- 98
2021-02-25 08:00:00 5.1 0 Calma 3 Oeste 0 1001.5 -- 98
2021-02-25 07:00:00 4.9 0 Calma 4 Noroeste 0 1001.5 -- 98
2021-02-25 06:00:00 5.3 0 Calma -- -- 0 1001.5 -- 98
2021-02-25 05:00:00 5.5 0 Calma 4 Este 0 1001.3 -- 98
2021-02-25 04:00:00 6.4 5 Este 8 Este 0 1001.6 -- 96
2021-02-25 03:00:00 7.2 0 Calma 19 Noroeste 0 1001.9 -- 91
2021-02-25 02:00:00 7.1 3 Sudeste 12 Oeste 0 1002.2 -- 90
2021-02-25 01:00:00 9.3 2 Sudeste 13 Sudeste 0 1002.6 -- 70
2021-02-25 00:00:00 8.7 0 Calma 8 Este 0 1002.4 -- 95
2021-02-24 23:00:00 9.4 2 Sudeste 8 Sudeste 0 1002.3 -- 90
2021-02-24 22:00:00 10.7 5 Noroeste 9 Noroeste 0 1001.8 -- 79
2021-02-24 21:00:00 12.9 0 Calma 11 Sudoeste 0 1001.5 -- 66
2021-02-24 20:00:00 13.6 2 Sudoeste 8 Sudoeste 0 1001.3 -- 62
2021-02-24 19:00:00 16 0 Calma 4 Sudeste 0 1001.1 -- 53
2021-02-24 18:00:00 20.5 2 Este 7 Sudeste 0 1001 -- 35
2021-02-24 17:00:00 21.5 0 Calma 9 Este 0 1001.3 -- 34
2021-02-24 16:00:00 20.8 3 Este 14 Sudeste 0 1001.8 -- 35
2021-02-24 15:00:00 20.2 5 Nordeste 20 Sudeste 0 1002.7 -- 37
2021-02-24 14:00:00 18.8 13 Este 31 Este 0 1003.6 -- 41
2021-02-24 13:00:00 17.9 12 Este 32 Este 0 1004.6 -- 45
2021-02-24 12:00:00 16.6 14 Este 26 Este 0 1005.7 -- 50
2021-02-24 11:00:00 14.5 8 Este 26 Este 0 1006.1 -- 56
2021-02-24 10:00:00 11.5 7 Este 17 Sudeste 0 1006.5 -- 70
2021-02-24 09:00:00 8.8 7 Este 12 Este 0 1006.4 -- 81
2021-02-24 08:00:00 7.6 3 Sudeste 8 Sudeste 0 1006.2 -- 86
2021-02-24 07:00:00 5.8 3 Este 9 Este 0 1006.1 -0.5 92
2021-02-24 06:00:00 5.9 5 Este 10 Sudeste 0 1006.2 -0.8 91
2021-02-24 05:00:00 7.1 4 Sudeste 8 Sudeste 0 1006.3 -- 89
2021-02-24 04:00:00 7.1 3 Sudeste 6 Sur 0 1006.6 -- 88
2021-02-24 03:00:00 6.7 0 Calma 9 Este 0 1007 -- 88
2021-02-24 02:00:00 7.3 2 Sudeste 8 Sudeste 0 1007.4 0.2 84
2021-02-24 01:00:00 8.1 3 Sudeste 9 Sudeste 0 1007.6 -- 81
2021-02-24 00:00:00 8.9 4 Sudeste 11 Sudeste 0 1007.6 -- 73
2021-02-23 23:00:00 8.6 2 Sudeste 5 Sudeste 0 1007.2 -- 76
2021-02-23 22:00:00 8.9 2 Este 6 Sudeste 0 1006.7 -- 75
2021-02-23 21:00:00 9.8 3 Sudeste 5 Sudeste 0 1006.1 1.1 70
2021-02-23 20:00:00 11.7 0 Calma 6 Oeste 0 1005.7 -- 59
2021-02-23 19:00:00 15.2 0 Calma 12 Norte 0 1005.2 -0.2 41
2021-02-23 18:00:00 17.9 3 Nordeste 14 Este 0 1005 -- 35
2021-02-23 17:00:00 18.5 4 Nordeste 16 Este 0 1005.1 -- 35
2021-02-23 16:00:00 17.2 9 Este 20 Este 0 1005.4 -- 35
2021-02-23 15:00:00 18.3 6 Este 20 Este 0 1005.6 -- 37
2021-02-23 14:00:00 15.9 8 Este 19 Este 0 1006 -- 41
2021-02-23 13:00:00 14.3 10 Este 19 Sudeste 0 1006.8 -- 51
2021-02-23 12:00:00 12.3 8 Este 17 Este 0 1007.4 -- 60
2021-02-23 11:00:00 9.9 8 Este 18 Este 0 1007.5 -- 72
2021-02-23 10:00:00 6.6 5 Este 13 Este 0 1007.1 -- 94
2021-02-23 09:00:00 3.7 0 Calma 7 Noroeste 0 1006.7 -- 98
2021-02-23 08:00:00 1.5 2 Norte 15 Este 0 1005.7 -- 98
2021-02-23 07:00:00 0.8 0 Calma 5 Este 0 1004.8 -- 98
2021-02-23 06:00:00 0.9 0 Calma -- -- 0 1004.6 -- 98
2021-02-23 05:00:00 1.5 0 Calma -- -- 0 1004.3 -- 98
2021-02-23 04:00:00 2.1 0 Calma -- -- 0 1003.9 -- 98
2021-02-23 03:00:00 1.9 0 Calma -- -- 0 1003.7 -- 98
2021-02-23 02:00:00 2.6 0 Calma 5 Este 0 1003.4 -- 98
2021-02-23 01:00:00 3.4 0 Calma 4 Sudoeste 0 1002.7 -- 98
2021-02-23 00:00:00 4.2 0 Calma 8 Este 0 1002.5 -- 98
2021-02-22 23:00:00 5.1 0 Calma 6 Oeste 0 1001.7 -- 98
2021-02-22 22:00:00 5.4 3 Este 7 Este 0 1000.7 -- 96
2021-02-22 21:00:00 8.1 5 Sudoeste 7 Sudoeste 0 1000.1 -- 87
2021-02-22 20:00:00 9.3 0 Calma 12 Sudoeste 0 999.5 -- 75
2021-02-22 19:00:00 10.8 8 Sudoeste 19 Sudoeste 0 998.2 -- 63
2021-02-22 18:00:00 13.4 9 Sudoeste 22 Sudoeste 0 997.5 -- 50
2021-02-22 17:00:00 13.9 14 Oeste 28 Sudoeste 0 997.1 -- 48
2021-02-22 16:00:00 13.4 15 Oeste 30 Sudoeste 0 996.5 -- 51
2021-02-22 15:00:00 13.7 15 Oeste 26 Sudoeste 0 996.5 -- 55
2021-02-22 14:00:00 11.8 15 Oeste 24 Oeste 0 996.7 -- 64
2021-02-22 13:00:00 11.1 9 Oeste 19 Oeste 0 997.2 -- 68
2021-02-22 12:00:00 9.2 10 Noroeste 18 Noroeste 0 997.3 -- 83
2021-02-22 11:00:00 7.6 13 Noroeste 21 Noroeste 0 997.3 -- 90
2021-02-22 10:00:00 6.6 10 Noroeste 14 Noroeste 0 996.6 -- 98
2021-02-22 09:00:00 4.9 8 Noroeste 12 Noroeste 0 995.9 -- 98
2021-02-22 08:00:00 3.2 6 Oeste 8 Oeste 0 994.7 -- 98
2021-02-22 07:00:00 4 7 Noroeste 8 Noroeste 0 993.9 2 98
2021-02-22 06:00:00 4.5 7 Noroeste 8 Oeste 0 993.1 -- 98
2021-02-22 05:00:00 4.2 5 Oeste 9 Oeste 0 992.3 -- 98
2021-02-22 04:00:00 -- -- -- -- -- -- -- -- --
2021-02-22 03:00:00 -- -- -- -- -- -- -- -- --
2021-02-22 02:00:00 -- -- -- -- -- -- -- -- --
2021-02-22 01:00:00 -- -- -- -- -- -- -- -- --
2021-02-22 00:00:00 -- -- -- -- -- -- -- -- --
2021-02-21 23:00:00 -- -- -- -- -- -- -- -- --
2021-02-21 22:00:00 8.8 13 Oeste 30 Oeste 0 987.6 3.9 89
2021-02-21 21:00:00 9 19 Oeste 32 Oeste 0 986.6 -- 88
2021-02-21 20:00:00 8.7 19 Oeste 78 Oeste 0.2 985.1 -- 95
2021-02-21 19:00:00 9.3 17 Oeste 31 Oeste 1.4 983.7 -- 96
2021-02-21 18:00:00 10.2 5 Sudoeste 14 Sudoeste 0.1 982.1 -- 96
2021-02-21 17:00:00 10.2 5 Oeste 16 Oeste 3.9 981.5 -- 97
2021-02-21 16:00:00 10.6 9 Oeste 22 Sudoeste 3.4 981.1 -- 98
2021-02-21 15:00:00 12 6 Oeste 18 Oeste 0.3 980.5 -- 90
2021-02-21 14:00:00 13.1 7 Oeste 12 Sudoeste 0.4 980.8 -- 87
2021-02-21 13:00:00 13 3 Sudeste 10 Este 0 981.5 -- 76
2021-02-21 12:00:00 12.6 2 Sudeste 9 Este 0 981.7 -- 76
2021-02-21 11:00:00 11.6 5 Sudeste 9 Sudeste 0 982 -- 79
2021-02-21 10:00:00 11.7 0 Calma 8 Nordeste 0 982 -- 79
2021-02-21 09:00:00 10.3 0 Calma 8 Oeste 0 981.7 -- 83
2021-02-21 08:00:00 9.1 0 Calma 9 Noroeste 0 982.4 -- 87
2021-02-21 07:00:00 9.8 2 Noroeste 18 Oeste 0 982.7 -- 83
2021-02-21 06:00:00 11.3 13 Oeste 18 Oeste 0 982.8 -- 72
2021-02-21 05:00:00 8.8 4 Oeste 9 Noroeste 0 982.5 -- 90
2021-02-21 04:00:00 9.3 6 Noroeste 15 Oeste 0 982.9 -- 87
2021-02-21 03:00:00 8.5 8 Noroeste 14 Noroeste 0 982.9 -- 91
2021-02-21 02:00:00 8.6 0 Calma 5 Sudeste 0 983.3 -- 93
2021-02-21 01:00:00 9 0 Calma 7 Noroeste 0 983.9 -- 92
2021-02-21 00:00:00 8.9 0 Calma 8 Sudeste 0 984.6 -- 90
2021-02-20 23:00:00 8.6 0 Calma 6 Norte 0 984.9 -- 92
2021-02-20 22:00:00 9.6 3 Este 10 Oeste 0 985.3 -- 87
2021-02-20 21:00:00 11 5 Oeste 12 Oeste 0 985.5 -- 75
2021-02-20 20:00:00 14.4 6 Sudoeste 8 Sudoeste 0 985.9 -- 63
2021-02-20 19:00:00 16.1 0 Calma 14 Oeste 0 985.9 -- 48
2021-02-20 18:00:00 20.5 9 Oeste 15 Oeste 0 985.9 -- 33
2021-02-20 17:00:00 21.5 11 Noroeste 18 Noroeste 0 986.3 -- 31
2021-02-20 16:00:00 21.3 13 Noroeste 19 Noroeste 0 986.8 -- 31
2021-02-20 15:00:00 21.5 3 Noroeste 9 Noroeste 0 987.4 -- 32
2021-02-20 14:00:00 21 0 Calma 9 Sudeste 0 988.7 -- 36
2021-02-20 13:00:00 17.5 2 Este 14 Este 0 990.2 -- 44
2021-02-20 12:00:00 13.8 7 Este 15 Este 0 991.1 -- 61
2021-02-20 11:00:00 11.3 0 Calma 11 Sudeste 0 992 -- 80
2021-02-20 10:00:00 7.6 4 Este 9 Este 0 992.6 -- 98
2021-02-20 09:00:00 4.2 0 Calma 4 Sudeste 0 992.4 0.4 98
2021-02-20 08:00:00 3.3 0 Calma 5 Este 0 991.7 -- 98
2021-02-20 07:00:00 3.4 0 Calma 10 Este 0 991.5 -- 98
2021-02-20 06:00:00 3.9 0 Calma 6 Sudeste 0 992 -- 98
2021-02-20 05:00:00 3.7 3 Noroeste 6 Noroeste 0 991.6 -- 98
2021-02-20 04:00:00 5.4 3 Este 5 Sudeste 0 991.6 -1.3 98
2021-02-20 03:00:00 5.3 0 Calma 5 Este 0 992.3 -- 98
2021-02-20 02:00:00 6 0 Calma 5 Oeste 0 992.7 -- 98
2021-02-20 01:00:00 7 0 Calma 5 Nordeste 0 992.9 -- 98
2021-02-20 00:00:00 9 0 Calma 6 Oeste 0 993.4 -- 94
2021-02-19 23:00:00 9.2 0 Calma 6 Sudoeste 0 993.7 0.6 93
2021-02-19 22:00:00 10.7 2 Sudoeste 12 Noroeste 0 993.3 -- 85
2021-02-19 21:00:00 12.7 0 Calma 19 Oeste 0 993.1 -- 70
2021-02-19 20:00:00 15.7 14 Oeste 20 Oeste 0 993.1 -- 53
2021-02-19 19:00:00 16.6 10 Oeste 16 Oeste 0 992.4 -- 46
2021-02-19 18:00:00 19.7 11 Oeste 17 Oeste 0 992.4 -- 32
2021-02-19 17:00:00 20.8 12 Oeste 19 Oeste 0 992.5 -1.4 29
2021-02-19 16:00:00 21 12 Oeste 19 Oeste 0 992.7 -- 29
2021-02-19 15:00:00 20.3 6 Noroeste 12 Oeste 0 993 -- 30
2021-02-19 14:00:00 19.7 3 Sudeste 12 Este 0 993.9 -- 35
2021-02-19 13:00:00 16.6 6 Este 15 Este 0 994.9 -- 49
2021-02-19 12:00:00 14 7 Sudeste 14 Este 0 995.8 -- 58
2021-02-19 11:00:00 9.9 3 Este 9 Este 0 996.3 -- 98
2021-02-19 10:00:00 6.7 4 Este 12 Este 0 996.6 -- 98
2021-02-19 09:00:00 6.2 5 Sudeste 12 Sudeste 0 996.3 -- 98
2021-02-19 08:00:00 6.6 5 Este 14 Este 0 996 -- 98
2021-02-19 07:00:00 7.6 9 Este 15 Este 0 995.7 -- 98
2021-02-19 06:00:00 7.7 7 Este 15 Este 0 995.8 -- 98
2021-02-19 05:00:00 7.5 8 Este 13 Este 0 995.6 -- 98
2021-02-19 04:00:00 6.6 3 Este 6 Nordeste 0 995.9 -- 98
2021-02-19 03:00:00 7.4 0 Calma 3 Este 0 996 -- 98
2021-02-19 02:00:00 6.4 0 Calma 4 Este 0 996 -- 98
2021-02-19 01:00:00 6 0 Calma 0 Calma 0 996.3 -- 98
2021-02-19 00:00:00 7.5 0 Calma 0 Calma 0 996.3 -- 98
2021-02-18 23:00:00 9 0 Calma 15 Sudoeste 0 996.4 -- 96
2021-02-18 22:00:00 12.3 12 Sudoeste 18 Sudoeste 0 996 -- 88
2021-02-18 21:00:00 12.6 9 Sudoeste 15 Oeste 0 995.6 -- 84
2021-02-18 20:00:00 13 5 Oeste 14 Oeste 0 995 -- 80
2021-02-18 19:00:00 15.3 8 Oeste 12 Oeste 0 994.3 -- 64
2021-02-18 18:00:00 18.9 9 Oeste 17 Oeste 0 993.9 -- 47
2021-02-18 17:00:00 19.7 9 Oeste 17 Oeste 0 993.7 -- 45
2021-02-18 16:00:00 19.5 12 Oeste 23 Oeste 0 993.9 -- 45
2021-02-18 15:00:00 18.9 14 Oeste 24 Oeste 0 994.2 -- 47
2021-02-18 14:00:00 17.5 11 Oeste 17 Oeste 0 994.8 -- 49
2021-02-18 13:00:00 15.7 0 Calma 8 Noroeste 0 995.5 -- 51
2021-02-18 12:00:00 14.5 0 Calma 8 Sudeste 0 996 -- 53
2021-02-18 11:00:00 10.4 2 Sudeste 12 Este 0 996 -- 69
2021-02-18 10:00:00 6.9 5 Este 9 Este 0 995.9 -- 98
2021-02-18 09:00:00 4.1 0 Calma 6 Este 0 995.7 -- 98
2021-02-18 08:00:00 2.3 0 Calma -- -- 0 995.2 -- 98
2021-02-18 07:00:00 2.7 0 Calma 4 Este 0 994.7 -- 98
2021-02-18 06:00:00 2.9 3 Este 5 Este 0 994.5 -- 98
2021-02-18 05:00:00 3.3 2 Este 5 Este 0 994.4 -- 98
2021-02-18 04:00:00 4.2 0 Calma 5 Oeste 0 994.4 -- 98
2021-02-18 03:00:00 4.4 0 Calma 0 Calma 0 994.4 -- 98
2021-02-18 02:00:00 4.7 0 Calma 3 Este 0 994.4 -- 98
2021-02-18 01:00:00 5.9 0 Calma 3 Este 0 994.7 -- 98
2021-02-18 00:00:00 6.8 0 Calma 5 Sudeste 0 994.9 -- 98
2021-02-17 23:00:00 7.4 4 Este 6 Este 0 994.9 -- 94
2021-02-17 22:00:00 8.8 0 Calma -- -- 0 994.8 -- 93
2021-02-17 21:00:00 9.7 0 Calma 5 Oeste 0 994.6 -- 84
2021-02-17 20:00:00 11.8 0 Calma 5 Norte 0 994.2 -- 67
2021-02-17 19:00:00 14.9 0 Calma 5 Sudoeste 0 994.1 -- 56
2021-02-17 18:00:00 20.4 0 Calma 3 Sudeste 0 994.3 -- 35
2021-02-17 17:00:00 23.1 0 Calma 6 Este 0 994.6 -- 29
2021-02-17 16:00:00 21.9 2 Sudeste 6 Este 0 995.1 -- 29
2021-02-17 15:00:00 20.5 3 Nordeste 10 Sudeste 0 995.8 -- 35
2021-02-17 14:00:00 19.1 3 Sudeste 12 Sudeste 0 997 -- 39
2021-02-17 13:00:00 15.8 5 Este 14 Este 0 998.1 -- 46
2021-02-17 12:00:00 13.2 5 Este 12 Sudeste 0 999.1 -- 52
2021-02-17 11:00:00 10.7 4 Este 13 Este 0 999.7 -- 70
2021-02-17 10:00:00 6.6 6 Este 13 Este 0 1000.2 -- 98
2021-02-17 09:00:00 4 0 Calma 5 Este 0 1000.1 -- 98
2021-02-17 08:00:00 2.4 0 Calma 3 Este 0 999.9 -- 98
2021-02-17 07:00:00 3 0 Calma 5 Este 0 999.9 -- 98
2021-02-17 06:00:00 4.3 2 Sudeste 4 Este 0 999.9 -- 98
2021-02-17 05:00:00 3.8 0 Calma 0 Calma 0 1000 -- 98
2021-02-17 04:00:00 3.8 0 Calma 0 Calma 0 1000.4 -- 98
2021-02-17 03:00:00 4.2 0 Calma 6 Este 0 1000.6 -- 98
2021-02-17 02:00:00 4.6 0 Calma 5 Este 0 1000.6 -- 98
2021-02-17 01:00:00 5.1 0 Calma 3 Este 0 1001 -- 98
2021-02-17 00:00:00 6.1 0 Calma 3 Este 0 1001.2 -- 98
2021-02-16 23:00:00 6.8 0 Calma 5 Este 0 1001.1 -- 96
2021-02-16 22:00:00 7.8 0 Calma 3 Oeste 0 1000.9 -- 91
2021-02-16 21:00:00 8.8 0 Calma 3 Este 0 1000.6 -- 84
2021-02-16 20:00:00 11.4 0 Calma 5 Noroeste 0 1000.4 -- 63
2021-02-16 19:00:00 14.1 0 Calma 5 Sudoeste 0 1000.2 -- 51
2021-02-16 18:00:00 19.8 4 Noroeste 9 Noroeste 0 1000 -- 32
2021-02-16 17:00:00 20.4 2 Noroeste 11 Noroeste 0 1000.7 -- 32
2021-02-16 16:00:00 20 2 Noroeste 9 Noroeste 0 1001.2 -- 32
2021-02-16 15:00:00 18.6 2 Noroeste 8 Noroeste 0 1001.9 -- 34
2021-02-16 14:00:00 17.3 2 Este 13 Este 0 1002.8 -- 39
2021-02-16 13:00:00 15.2 4 Este 13 Este 0 1003.6 -- 48
2021-02-16 12:00:00 13.7 4 Este 13 Sudeste 0 1004.5 -- 51
2021-02-16 11:00:00 11.4 5 Este 12 Sudeste 0 1004.7 -- 62
2021-02-16 10:00:00 6.2 0 Calma 5 Noroeste 0 1004.5 -- 98
2021-02-16 09:00:00 3.2 0 Calma -- -- 0 1003.9 -- 98
2021-02-16 08:00:00 1.3 0 Calma 6 Oeste 0 1003.3 -- 98
2021-02-16 07:00:00 2.5 0 Calma 0 Calma 0 1003.1 -- 98
2021-02-16 06:00:00 2.9 0 Calma 0 Calma 0 1003.4 -- 98
2021-02-16 05:00:00 3.4 0 Calma 3 Este 0 1003.6 -- 98
2021-02-16 04:00:00 4 0 Calma -- -- 0 1003.9 -- 98
2021-02-16 03:00:00 4.2 0 Calma 3 Oeste 0 1004.1 -- 98
2021-02-16 02:00:00 5.2 0 Calma 0 Calma 0 1004.4 -- 98
2021-02-16 01:00:00 6.2 0 Calma 5 Sudeste 0 1004.5 -- 98
2021-02-16 00:00:00 7.4 0 Calma 6 Noroeste 0 1004.5 -- 96
2021-02-15 23:00:00 8 4 Noroeste 6 Noroeste 0 1004.3 -- 92
2021-02-15 22:00:00 9.4 4 Este 8 Este 0 1004 -- 87
2021-02-15 21:00:00 9.7 2 Este 6 Este 0 1003.5 -- 87
2021-02-15 20:00:00 11.8 0 Calma -- -- 0 1003.4 -- 70
2021-02-15 19:00:00 14.8 0 Calma 5 Nordeste 0 1003.1 -- 52
2021-02-15 18:00:00 20.3 2 Este 10 Este 0 1003 -- 35
2021-02-15 17:00:00 20 4 Este 18 Sudeste 0 1003.3 -- 35
2021-02-15 16:00:00 19.1 8 Este 19 Este 0 1003.6 -- 36
2021-02-15 15:00:00 18.8 7 Este 18 Este 0 1004.5 -- 37
2021-02-15 14:00:00 18.5 7 Este 19 Este 0 1005.2 -- 40
2021-02-15 13:00:00 17.3 9 Este 20 Este 0 1006.1 -- 44
2021-02-15 12:00:00 15.7 7 Este 20 Este 0 1006.6 -- 47
2021-02-15 11:00:00 14.1 9 Este 21 Este 0 1006.8 -- 54
2021-02-15 10:00:00 11 9 Este 14 Este 0 1006.8 -- 73
2021-02-15 09:00:00 8 4 Este 9 Este 0 1006.3 -- 88
2021-02-15 08:00:00 -- -- -- -- -- -- -- -- --
2021-02-15 07:00:00 -- -- -- -- -- -- -- -- --
2021-02-15 06:00:00 -- -- -- -- -- -- -- -- --
2021-02-15 05:00:00 -- -- -- -- -- -- -- -- --
2021-02-15 04:00:00 -- -- -- -- -- -- -- -- --
2021-02-15 03:00:00 -- -- -- -- -- -- -- -- --
2021-02-15 02:00:00 -- -- -- -- -- -- -- -- --
2021-02-15 01:00:00 -- -- -- -- -- -- -- -- --
2021-02-15 00:00:00 -- -- -- -- -- -- -- -- --
2021-02-14 23:00:00 -- -- -- -- -- -- -- -- --
2021-02-14 22:00:00 -- -- -- -- -- -- -- -- --
2021-02-14 21:00:00 -- -- -- -- -- -- -- -- --
2021-02-14 20:00:00 -- -- -- -- -- -- -- -- --
2021-02-14 19:00:00 -- -- -- -- -- -- -- -- --
2021-02-14 18:00:00 -- -- -- -- -- -- -- -- --
2021-02-14 17:00:00 -- -- -- -- -- -- -- -- --
2021-02-14 16:00:00 21.2 5 Sudeste 13 Sudeste 0 1002 -- 28
2021-02-14 15:00:00 20.4 6 Sudeste 15 Sudeste 0 1002.2 -- 32
2021-02-14 14:00:00 19 5 Sudeste 16 Este 0 1002.4 -- 41
2021-02-14 13:00:00 16.8 10 Sudeste 19 Sudeste 0 1003 -- 45
2021-02-14 12:00:00 14.3 8 Este 19 Este 0 1003.6 -- 58
2021-02-14 11:00:00 11.6 10 Este 19 Este 0 1003.9 -- 66
2021-02-14 10:00:00 8.7 9 Este 14 Sudeste 0 1004 -- 83
2021-02-14 09:00:00 5.8 6 Sudeste 15 Este 0 1003.4 -- 98
2021-02-14 08:00:00 5.3 6 Este 14 Este 0 1002.7 -- 98
2021-02-14 07:00:00 4 0 Calma 8 Este 0 1002.3 -- 98
2021-02-14 06:00:00 3.7 0 Calma 5 Este 0 1002 -- 98
2021-02-14 05:00:00 4.5 0 Calma 7 Este 0 1002.1 -- 98
2021-02-14 04:00:00 5.4 0 Calma 6 Este 0 1002.5 -- 98
2021-02-14 03:00:00 6.1 3 Este 12 Este 0 1002.5 -- 98
2021-02-14 02:00:00 6.4 3 Este 6 Este 0 1002.6 -- 98
2021-02-14 01:00:00 6.6 0 Calma 4 Este 0 1002.5 -- 98
2021-02-14 00:00:00 6.9 0 Calma 4 Este 0 1002.4 -- 98
2021-02-13 23:00:00 7.4 0 Calma 7 Este 0 1002.1 -- 98
2021-02-13 22:00:00 7.8 3 Este 5 Sudeste 0 1001.9 -- 97
2021-02-13 21:00:00 9.3 0 Calma -- -- 0 1001.5 -- 93
2021-02-13 20:00:00 11.6 0 Calma 6 Norte 0 1001 -- 84
2021-02-13 19:00:00 13.2 2 Sur 8 Oeste 0 1000.3 -- 72
2021-02-13 18:00:00 18.1 3 Oeste 8 Oeste 0 999.9 -- 43
2021-02-13 17:00:00 18.9 0 Calma 8 Oeste 0 1000.2 -- 41
2021-02-13 16:00:00 18.1 4 Sudoeste 9 Sudoeste 0 1000.5 -- 42
2021-02-13 15:00:00 18.4 0 Calma 8 Sudeste 0 1001.2 -- 41
2021-02-13 14:00:00 16 2 Sudeste 10 Sur 0 1001.6 -- 52
2021-02-13 13:00:00 14.6 0 Calma 12 Sudeste 0 1002.5 -- 56
2021-02-13 08:00:00 -- -- -- -- -- -- -- -- --
2021-02-13 07:00:00 -- -- -- -- -- -- -- -- --
2021-02-13 06:00:00 -- -- -- -- -- -- -- -- --
2021-02-13 05:00:00 -- -- -- -- -- -- -- -- --
2021-02-13 04:00:00 -- -- -- -- -- -- -- -- --
2021-02-13 03:00:00 -- -- -- -- -- -- -- -- --
2021-02-13 02:00:00 -- -- -- -- -- -- -- -- --
2021-02-13 01:00:00 -- -- -- -- -- -- -- -- --
2021-02-13 00:00:00 -- -- -- -- -- -- -- -- --
2021-02-12 23:00:00 -- -- -- -- -- -- -- -- --
2021-02-12 22:00:00 -- -- -- -- -- -- -- -- --
2021-02-12 21:00:00 -- -- -- -- -- -- -- -- --
2021-02-12 20:00:00 -- -- -- -- -- -- -- -- --
2021-02-12 19:00:00 -- -- -- -- -- -- -- -- --
2021-02-12 18:00:00 -- -- -- -- -- -- -- -- --
2021-02-12 17:00:00 16.9 14 Oeste 24 Oeste 0 997.6 -0.5 47
2021-02-12 16:00:00 17.5 14 Oeste 28 Oeste 0 997.7 -0.8 44
2021-02-12 15:00:00 17.8 17 Oeste 32 Oeste 0 998 -0.3 46
2021-02-12 14:00:00 17.3 14 Oeste 30 Oeste 0 998.1 -0.1 52
2021-02-12 13:00:00 16.5 19 Oeste 28 Oeste 0 998.5 1.1 58
2021-02-12 12:00:00 15.6 16 Oeste 26 Oeste 0 998.3 1.3 59
2021-02-12 11:00:00 14.6 14 Oeste 24 Oeste 0 998.2 1.4 86
2021-02-12 10:00:00 13.3 11 Oeste 20 Oeste 0.5 997.4 0.8 98
2021-02-12 09:00:00 12.9 7 Oeste 17 Sudoeste 0.4 997 -- 98
2021-02-12 08:00:00 12.9 7 Sudoeste 21 Oeste 0.5 996.8 -- 97
2021-02-12 07:00:00 13.1 8 Oeste 13 Oeste 0 996.6 -- 93
2021-02-12 06:00:00 13.2 8 Oeste 16 Oeste 0 996.4 -- 93
2021-02-12 05:00:00 13.3 8 Oeste 18 Oeste 0 996.5 -- 96
2021-02-12 04:00:00 13.1 11 Oeste 17 Sudoeste 0.1 996.5 -- 98
2021-02-12 03:00:00 12.9 9 Sudoeste 12 Sudoeste 0.2 996.5 -- 98
2021-02-12 02:00:00 11.9 0 Calma -- -- 0 996.2 -- 98
2021-02-12 01:00:00 12 0 Calma 8 Oeste 0 995.9 -- 98
2021-02-12 00:00:00 12.3 0 Calma -- -- 0 996.1 -- 97
2021-02-11 23:00:00 13.6 0 Calma 10 Oeste 0 996.2 -- 94
2021-02-11 22:00:00 14.4 6 Oeste 16 Sudoeste 0 996.5 -- 91
2021-02-11 21:00:00 14.6 6 Sudoeste 12 Oeste 0 996.4 -- 87
2021-02-11 20:00:00 14.8 10 Oeste 17 Oeste 0 996.3 -- 85
2021-02-11 19:00:00 15.1 6 Oeste 18 Oeste 0 995.9 -- 80
2021-02-11 18:00:00 16 13 Oeste 18 Oeste 0 995.3 -- 76
2021-02-11 17:00:00 17 10 Oeste 17 Noroeste 0 995.4 -- 71
2021-02-11 16:00:00 17.4 9 Noroeste 15 Noroeste 0 995.3 -- 67
2021-02-11 15:00:00 17.4 8 Noroeste 15 Oeste 0 995.6 -- 73
2021-02-11 14:00:00 17 9 Noroeste 15 Noroeste 0 996.5 -- 77
2021-02-11 13:00:00 15.4 4 Noroeste 14 Oeste 0 997.2 -- 85
2021-02-11 12:00:00 15.1 9 Noroeste 15 Noroeste 0.1 997.5 -- 89
2021-02-11 11:00:00 13.8 7 Oeste 13 Sudoeste 0.4 997.4 -- 95
2021-02-11 10:00:00 14.3 2 Noroeste 7 Noroeste 0 997 -- 98
2021-02-11 09:00:00 13.4 0 Calma -- -- 0 996.7 -- 98
2021-02-11 08:00:00 13.3 0 Calma 5 Sudoeste 0 996.3 -- 98
2021-02-11 07:00:00 13.4 0 Calma 9 Sudoeste 0 996 -- 98
2021-02-11 06:00:00 13.4 6 Oeste 15 Sudoeste 0.3 995.9 -- 98
2021-02-11 05:00:00 13.5 6 Oeste 13 Sudoeste 0.2 995.7 -- 98
2021-02-11 04:00:00 13.4 6 Oeste 14 Oeste 1 995.9 -- 98
2021-02-11 03:00:00 13.6 6 Oeste 10 Oeste 0 995.9 -- 98
2021-02-11 02:00:00 13.6 3 Oeste 13 Oeste 0.1 995.9 -- 98
2021-02-11 01:00:00 13.9 9 Oeste 17 Oeste 0 995.8 -- 98
2021-02-11 00:00:00 13.8 14 Oeste 25 Oeste 0 995.2 -- 98
2021-02-10 23:00:00 14 11 Oeste 18 Oeste 2.3 995 -- 98
2021-02-10 22:00:00 13.3 0 Calma 8 Sudoeste 0.3 994.4 -- 97
2021-02-10 21:00:00 13.9 4 Sudoeste 13 Sudoeste 0 993.7 -- 93
2021-02-10 20:00:00 14 8 Sudoeste 14 Sudoeste 0 993.2 -- 89
2021-02-10 19:00:00 14.5 8 Sudoeste 12 Sudoeste 0 992.2 -- 86
2021-02-10 18:00:00 15.1 8 Oeste 17 Oeste 0 991.7 -- 82
2021-02-10 17:00:00 15.6 13 Oeste 19 Oeste 0 991.1 -- 81
2021-02-10 16:00:00 15.2 12 Oeste 30 Oeste 0 991 -- 88
2021-02-10 15:00:00 14.4 16 Oeste 27 Oeste 0 991 -- 92
2021-02-10 14:00:00 14.3 9 Oeste 17 Noroeste 0.2 991 -- 96
2021-02-10 13:00:00 14 11 Oeste 17 Oeste 0.1 990.9 -- 96
2021-02-10 12:00:00 12.9 10 Oeste 19 Oeste 1.4 989.9 -- 98
2021-02-10 11:00:00 12 14 Noroeste 37 Oeste 4 989.1 -- 98
2021-02-10 10:00:00 11.4 10 Noroeste 21 Oeste 3.3 988.3 -- 98
2021-02-10 09:00:00 11.7 12 Noroeste 29 Oeste 4.6 987.5 -- 98
2021-02-10 08:00:00 11.8 16 Oeste 36 Oeste 2.8 986.6 -- 98
2021-02-10 07:00:00 11.8 17 Oeste 37 Sudoeste 1.4 986.2 -- 96
2021-02-10 06:00:00 12.2 19 Oeste 42 Oeste 0 986.2 -- 87
2021-02-10 05:00:00 11.9 17 Oeste 35 Sudoeste 0 986.1 -- 88
2021-02-10 04:00:00 11.4 17 Oeste 37 Oeste 0 986.9 -- 87
2021-02-10 03:00:00 11.1 19 Oeste 37 Oeste 0 986.8 -- 89
2021-02-10 02:00:00 11.5 17 Oeste 37 Oeste 0 987 -- 86
2021-02-10 01:00:00 12 23 Oeste 49 Sudoeste 0 986.8 -- 86
2021-02-10 00:00:00 12.2 19 Oeste 38 Oeste 0 985.9 -- 91
2021-02-09 23:00:00 12.6 20 Oeste 42 Oeste 0.1 985.5 -- 93
2021-02-09 22:00:00 12.6 24 Oeste 55 Sudoeste 0 985 -- 93
2021-02-09 21:00:00 12.8 28 Oeste 48 Sudoeste 1.7 984.1 -- 96
2021-02-09 20:00:00 12 16 Oeste 33 Sudoeste 4.5 984.4 -- 98
2021-02-09 19:00:00 11.9 18 Oeste 51 Sudoeste 3.1 984.5 -- 97
2021-02-09 18:00:00 12.8 26 Oeste 69 Sudoeste 0 984.3 -- 84
2021-02-09 17:00:00 12.9 27 Oeste 42 Sudoeste 0.2 984 -- 89
2021-02-09 16:00:00 12.3 30 Oeste 51 Oeste 1.5 984 -- 93
2021-02-09 15:00:00 14 27 Sudoeste 57 Sudoeste 0 983.7 -- 72
2021-02-09 14:00:00 13.9 29 Sudoeste 63 Sudoeste 0 984.6 -- 73
2021-02-09 13:00:00 14.1 25 Sudoeste 58 Sudoeste 0 985.9 -- 69
2021-02-09 12:00:00 13.4 21 Sudoeste 40 Oeste 0 986.6 -- 68
2021-02-09 11:00:00 13.2 13 Sudoeste 28 Sudoeste 0 987 -- 71
2021-02-09 10:00:00 11.6 11 Sudoeste 23 Oeste 0 987.3 -- 83
2021-02-09 09:00:00 10.6 9 Sudoeste 23 Sudoeste 0.1 987.5 -- 90
2021-02-09 08:00:00 9.9 10 Oeste 21 Oeste 0.4 987.5 -- 97
2021-02-09 07:00:00 10.2 3 Sudoeste 8 Sudoeste 0 987.7 -- 95
2021-02-09 06:00:00 10 3 Oeste 14 Sudoeste 0 988.1 -- 93
2021-02-09 05:00:00 10.4 9 Sudoeste 17 Oeste 0 988.3 -- 90
2021-02-09 04:00:00 10.1 4 Sudoeste 13 Oeste 0 988.5 -- 93
2021-02-09 03:00:00 9.8 5 Oeste 25 Oeste 0 989 -- 93
2021-02-09 02:00:00 10.3 13 Oeste 29 Oeste 0 989 -- 89
2021-02-09 01:00:00 10.9 11 Oeste 22 Oeste 0 989.3 -- 90
2021-02-09 00:00:00 10.9 13 Oeste 31 Sudoeste 0 989.4 -- 88
2021-02-08 23:00:00 11.1 18 Sudoeste 34 Oeste 0 988.9 -- 87
2021-02-08 22:00:00 11.2 12 Oeste 23 Sudoeste 0 988.5 -- 86
2021-02-08 21:00:00 11.3 13 Oeste 26 Oeste 0 987.8 -- 82
2021-02-08 20:00:00 11.7 18 Oeste 35 Oeste 0 987.2 -- 76
2021-02-08 19:00:00 11.9 24 Oeste 40 Sudoeste 0 985.7 -- 70
2021-02-08 18:00:00 12.6 16 Oeste 39 Oeste 0 985.2 -- 71
2021-02-08 17:00:00 13.4 17 Oeste 28 Oeste 0 984.5 -- 70
2021-02-08 16:00:00 12.4 18 Oeste 32 Oeste 1.1 984.5 -- 84
2021-02-08 15:00:00 10.5 25 Oeste 44 Oeste 1.3 984.6 -- 86
2021-02-08 14:00:00 13.7 22 Oeste 34 Oeste 0 984.6 -- 69
2021-02-08 13:00:00 12.2 21 Oeste 35 Oeste 0 985.5 -- 74
2021-02-08 12:00:00 11.5 18 Oeste 32 Sudoeste 0 986 -- 73
2021-02-08 11:00:00 11 16 Oeste 30 Oeste 0 985.8 -- 73
2021-02-08 10:00:00 10.7 13 Oeste 30 Oeste 0 985.4 -- 76
2021-02-08 09:00:00 10.1 21 Oeste 32 Oeste 0 984.1 -- 79
2021-02-08 08:00:00 10.5 20 Oeste 45 Oeste 2.3 982.2 -- 93
2021-02-08 07:00:00 10.7 17 Sudoeste 33 Sudoeste 4.5 980.1 -- 93
2021-02-08 06:00:00 10.1 9 Sudoeste 23 Sudoeste 1 981.2 -- 94
2021-02-08 05:00:00 10.3 12 Sudoeste 27 Sur 0.8 982.7 -- 95
2021-02-08 04:00:00 10.1 11 Sudoeste 25 Sudoeste 0.1 984.4 -- 97
2021-02-08 03:00:00 9.5 8 Sudoeste 23 Sudoeste 0.4 985.7 -- 98
2021-02-08 02:00:00 9.6 10 Sudoeste 29 Sudoeste 0 986.5 -- 88
2021-02-08 01:00:00 9.9 10 Sudoeste 25 Sudoeste 0 987.8 -- 79
2021-02-08 00:00:00 9.7 8 Oeste 27 Sudoeste 0 988.3 -- 76
2021-02-07 23:00:00 9.6 13 Oeste 23 Oeste 0 988.8 -- 71
2021-02-07 22:00:00 9.6 15 Sudoeste 28 Sudoeste 0 988.8 -- 68
2021-02-07 21:00:00 10 16 Oeste 30 Oeste 0 988.9 -- 68
2021-02-07 20:00:00 10.3 13 Oeste 34 Sudoeste 0 988.4 -- 68
2021-02-07 19:00:00 10.6 21 Sudoeste 40 Oeste 0 987.7 -- 65
2021-02-07 18:00:00 12 22 Oeste 39 Oeste 0 986.8 -- 63
2021-02-07 17:00:00 13.2 18 Sudoeste 37 Sudoeste 0 986.3 -- 61
2021-02-07 16:00:00 14.2 14 Oeste 32 Oeste 0 986 -- 53
2021-02-07 15:00:00 13.7 21 Oeste 30 Oeste 0 986 -- 53
2021-02-07 14:00:00 12.2 17 Oeste 32 Oeste 0 986.3 -- 69
2021-02-07 13:00:00 12.2 21 Oeste 63 Oeste 0 986.4 -- 69
2021-02-07 12:00:00 11.2 14 Oeste 26 Sudoeste 0 986.9 -- 85
2021-02-07 11:00:00 9.8 15 Oeste 23 Sudoeste 0 986.6 -- 90
2021-02-07 10:00:00 9.5 10 Oeste 18 Oeste 0 986.1 -- 94
2021-02-07 09:00:00 9.1 11 Sudoeste 20 Sudoeste 0 985.5 -- 95
2021-02-07 08:00:00 8.6 11 Sudoeste 18 Sudoeste 0 984.5 -- 96
2021-02-07 07:00:00 8.8 9 Sudoeste 17 Oeste 0 984.2 -- 93
2021-02-07 06:00:00 8.8 8 Sudoeste 18 Oeste 0 983.9 -- 93
2021-02-07 05:00:00 9 10 Sudoeste 17 Sudoeste 0 983.7 -- 93
2021-02-07 04:00:00 8.9 3 Oeste 23 Oeste 0 983.8 -- 93
2021-02-07 03:00:00 9 8 Oeste 20 Oeste 0 983.8 -- 93
2021-02-07 02:00:00 9.6 11 Oeste 22 Oeste 0 983.5 -- 88
2021-02-07 01:00:00 9.5 12 Oeste 27 Sudoeste 0 983.2 -- 87
2021-02-07 00:00:00 10.2 17 Sudoeste 26 Sudoeste 0 982.9 -- 87
2021-02-06 23:00:00 10.5 12 Sudoeste 21 Sudoeste 0 982.8 -- 84
2021-02-06 22:00:00 10.6 7 Sudoeste 23 Sudoeste 0 982.3 -- 84
2021-02-06 21:00:00 10.7 11 Sudoeste 22 Sudoeste 0 982 -- 82
2021-02-06 20:00:00 10.9 6 Oeste 15 Oeste 0 981.4 -- 79
2021-02-06 19:00:00 11.1 6 Oeste 10 Oeste 0 980.4 -- 87
2021-02-06 18:00:00 11.4 7 Oeste 17 Oeste 0 980.1 -- 87
2021-02-06 17:00:00 11 11 Oeste 27 Oeste 0.6 979.9 -- 90
2021-02-06 16:00:00 12.4 14 Oeste 24 Oeste 0 979.5 -- 76
2021-02-06 15:00:00 11.8 2 Noroeste 10 Noroeste 0.7 979.5 -- 89
2021-02-06 14:00:00 11 3 Norte 18 Oeste 0 979.9 -- 91
2021-02-06 13:00:00 11.8 10 Oeste 26 Oeste 0 980.5 -- 76
2021-02-06 12:00:00 11.1 14 Sudoeste 24 Sudoeste 0 980.7 -- 81
2021-02-06 11:00:00 10.1 4 Oeste 17 Sudoeste 0.1 980.6 -- 89
2021-02-06 10:00:00 9.6 0 Calma 10 Sudeste 0 980.5 -- 83
2021-02-06 09:00:00 9.5 5 Sudoeste 26 Oeste 0 980.2 -- 82
2021-02-06 08:00:00 8.7 9 Sudoeste 34 Oeste 0 979.7 -- 84
2021-02-06 07:00:00 9.7 18 Oeste 33 Sudoeste 0.1 978.9 -- 91
2021-02-06 06:00:00 10 11 Oeste 30 Oeste 0.3 978.5 -- 98
2021-02-06 05:00:00 9.6 0 Calma 9 Este 0.1 978.2 -- 98
2021-02-06 04:00:00 9.7 5 Sudeste 11 Este 0.3 978.4 -- 98
2021-02-06 03:00:00 9.3 3 Sudeste 7 Sudeste 0.2 978.8 -- 98
2021-02-06 02:00:00 9.5 2 Sudeste 10 Sudeste 0.1 979.3 -- 98
2021-02-06 01:00:00 8.6 0 Calma 3 Sudeste 0 979.5 -- 98
2021-02-06 00:00:00 8.7 0 Calma 4 Este 0 979.5 -- 98
2021-02-05 23:00:00 10.2 0 Calma 5 Sur 0 979.6 -- 97
2021-02-05 22:00:00 10.8 5 Sudoeste 13 Sudoeste 1.3 979.4 -- 97
2021-02-05 21:00:00 11.3 7 Sudoeste 16 Sudoeste 0 979.1 -- 91
2021-02-05 20:00:00 11.2 10 Oeste 20 Oeste 0.3 978.7 -- 92
2021-02-05 19:00:00 11.7 15 Oeste 40 Oeste 0.4 978.7 -- 91
2021-02-05 18:00:00 13.8 26 Oeste 41 Oeste 0 978.5 -- 67
2021-02-05 17:00:00 16.7 17 Oeste 26 Oeste 0 977.2 -- 53
2021-02-05 16:00:00 18.4 14 Oeste 24 Sudoeste 0 976.9 -- 48
2021-02-05 15:00:00 17.8 12 Oeste 28 Oeste 0 977.4 -- 52
2021-02-05 14:00:00 17.9 15 Oeste 30 Oeste 0 978.6 -- 53
2021-02-05 13:00:00 16.5 12 Oeste 21 Oeste 0 979.2 -- 55
2021-02-05 12:00:00 14.5 4 Noroeste 14 Oeste 0 979.7 -- 64
2021-02-05 11:00:00 12.4 9 Oeste 16 Oeste 0 979.9 -- 95
2021-02-05 10:00:00 8.3 0 Calma 5 Sudeste 0 979.5 -- 98
2021-02-05 09:00:00 5 0 Calma 4 Oeste 0 979.3 -- 98
2021-02-05 08:00:00 5.1 0 Calma 4 Sudeste 0 978.7 -- 98
2021-02-05 07:00:00 6 0 Calma 5 Oeste 0 978.4 -- 98
2021-02-05 06:00:00 5.9 5 Noroeste 9 Noroeste 0 978.6 -- 98
2021-02-05 05:00:00 6.8 0 Calma 4 Oeste 0 978.9 -- 98
2021-02-05 04:00:00 7.4 0 Calma 9 Este 0 979.6 -- 98
2021-02-05 03:00:00 9.3 4 Sudeste 9 Este 0 980 -- 98
2021-02-05 02:00:00 9.6 0 Calma -- -- 0 981.2 -- 96
2021-02-05 01:00:00 10.5 0 Calma 8 Sudeste 0 981.7 -- 93
2021-02-05 00:00:00 11.4 5 Este 17 Este 0 982.7 -- 88
2021-02-04 23:00:00 11.2 5 Sudeste 12 Sudeste 0 982.6 -- 94
2021-02-04 22:00:00 9.5 2 Este 5 Este 0 983.5 -- 97
2021-02-04 21:00:00 9.6 0 Calma 5 Este 0 984 -- 95
2021-02-04 20:00:00 10.5 0 Calma 6 Sudeste 0 984.4 -- 92
2021-02-04 19:00:00 12.1 0 Calma 7 Oeste 0 984.4 -- 82
2021-02-04 18:00:00 15.9 4 Noroeste 12 Sudoeste 0 984.6 -- 60
2021-02-04 17:00:00 17 8 Oeste 24 Oeste 0 984.3 -- 54
2021-02-04 16:00:00 16.9 14 Oeste 22 Oeste 0 984.3 -- 53
2021-02-04 15:00:00 16.3 18 Oeste 31 Oeste 0 984.2 -- 54
2021-02-04 14:00:00 16.5 14 Oeste 23 Oeste 0 984.6 -- 56
2021-02-04 13:00:00 14.8 0 Calma 9 Sudeste 0 985.3 -- 64
2021-02-04 12:00:00 13.4 3 Este 6 Este 0 985.8 -- 74
2021-02-04 11:00:00 10.2 0 Calma 10 Oeste 0 986.6 -- 98
2021-02-04 10:00:00 7.9 0 Calma 4 Nordeste 0 987 -- 98
2021-02-04 09:00:00 6.6 0 Calma -- -- 0 987.1 -- 98
2021-02-04 08:00:00 5.8 0 Calma 7 Oeste 0 987.3 -- 98
2021-02-04 07:00:00 7.4 0 Calma 3 Este 0 987.8 -- 98
2021-02-04 06:00:00 6.9 0 Calma -- -- 0 988.1 -- 98
2021-02-04 05:00:00 5.9 0 Calma 5 Este 0 988.6 -- 98
2021-02-04 04:00:00 6.4 0 Calma -- -- 0 989 -- 98
2021-02-04 03:00:00 7.7 0 Calma 3 Sudeste 0 989.7 -- 98
2021-02-04 02:00:00 8.2 0 Calma 5 Este 0 990.1 -- 98
2021-02-04 01:00:00 7.9 0 Calma -- -- 0 990.5 -- 98
2021-02-04 00:00:00 7.4 0 Calma 4 Este 0 990.8 -- 98
2021-02-03 23:00:00 7.6 0 Calma 5 Este 0 990.8 -- 98
2021-02-03 22:00:00 8 3 Este 4 Este 0 990.6 -- 98
2021-02-03 21:00:00 8.9 0 Calma 0 Calma 0 990.8 -- 95
2021-02-03 20:00:00 10 0 Calma 0 Calma 0 990.7 -- 90
2021-02-03 19:00:00 11.5 2 Oeste 9 Noroeste 0 990.5 -- 79
2021-02-03 18:00:00 13.8 8 Noroeste 14 Oeste 0 990.6 -- 66
2021-02-03 17:00:00 14.8 9 Noroeste 14 Oeste 0 990.6 -- 60
2021-02-03 16:00:00 15.4 6 Noroeste 14 Noroeste 0 991 -- 58
2021-02-03 15:00:00 14.3 2 Noroeste 9 Noroeste 0 991.6 -- 62
2021-02-03 14:00:00 13.8 3 Noroeste 7 Noroeste 0 992.4 -- 69
2021-02-03 13:00:00 13.3 4 Noroeste 7 Noroeste 0 993.5 -- 70
2021-02-03 12:00:00 11.6 0 Calma 6 Este 0 994.3 -- 85
2021-02-03 11:00:00 9.9 0 Calma 3 Sudeste 0 994.5 -- 98
2021-02-03 10:00:00 8.5 0 Calma 3 Sudeste 0 994.3 -- 98
2021-02-03 09:00:00 7.6 0 Calma 4 Este 0 994 -- 98
2021-02-03 08:00:00 6.9 0 Calma -- -- 0 993.7 -- 98
2021-02-03 07:00:00 6 0 Calma 2 Noroeste 0 993.6 -- 98
2021-02-03 06:00:00 5.7 0 Calma 6 Sudeste 0 993.5 -- 98
2021-02-03 05:00:00 6.2 0 Calma 6 Este 0 993.8 -- 98
2021-02-03 04:00:00 7.1 0 Calma 6 Oeste 0 994 -- 98
2021-02-03 03:00:00 7.1 0 Calma 4 Oeste 0 994.4 -- 98
2021-02-03 02:00:00 5.5 0 Calma -- -- 0 994.3 -- 98
2021-02-03 01:00:00 5.9 0 Calma 3 Sudeste 0 994.7 -- 98
2021-02-03 00:00:00 6.5 0 Calma -- -- 0 995 -- 98
2021-02-02 23:00:00 7 0 Calma 0 Calma 0 994.9 -- 98
2021-02-02 22:00:00 7.9 0 Calma 5 Oeste 0 994.7 -- 98
2021-02-02 21:00:00 9 0 Calma 8 Sudoeste 0 994.6 -- 93
2021-02-02 20:00:00 11 5 Sudoeste 13 Oeste 0 994.6 -- 81
2021-02-02 19:00:00 13.1 10 Oeste 16 Noroeste 0 994.5 -- 73
2021-02-02 18:00:00 13.7 9 Noroeste 16 Noroeste 0 993.5 -- 68
2021-02-02 17:00:00 14.2 12 Noroeste 17 Noroeste 0 993.9 -- 68
2021-02-02 16:00:00 14.4 10 Noroeste 16 Oeste 0 994.1 -- 68
2021-02-02 15:00:00 14.5 6 Oeste 13 Oeste 0 994.9 -- 68
2021-02-02 14:00:00 14.2 2 Noroeste 10 Noroeste 0 995.8 -- 66
2021-02-02 13:00:00 13.6 3 Noroeste 8 Norte 0 996.4 -- 73
2021-02-02 12:00:00 13.6 0 Calma 8 Sudeste 0 997.3 -- 79
2021-02-02 11:00:00 12.5 2 Este 5 Sudeste 0 997.4 -- 85
2021-02-02 10:00:00 11.8 0 Calma -- -- 0 997.4 -- 92
2021-02-02 09:00:00 11.3 0 Calma -- -- 0 997.4 -- 96
2021-02-02 08:00:00 11 0 Calma -- -- 0 997.2 -- 96
2021-02-02 07:00:00 11.1 0 Calma -- -- 0 997.1 -- 95
2021-02-02 06:00:00 11.2 0 Calma 6 Oeste 0 997.1 -- 94
2021-02-02 05:00:00 11.3 2 Oeste 6 Noroeste 0 997.1 -- 94
2021-02-02 04:00:00 11.4 4 Noroeste 5 Noroeste 0 997.3 -- 95
2021-02-02 03:00:00 11.3 0 Calma 0 Calma 0 997.4 -- 95
2021-02-02 02:00:00 11 0 Calma 10 Noroeste 0 997.3 -- 95
2021-02-02 01:00:00 11.6 6 Noroeste 16 Sudoeste 0 997.6 -- 90
2021-02-02 00:00:00 12.6 11 Sudoeste 23 Sudoeste 0 997.3 -- 87
2021-02-01 23:00:00 12.8 13 Oeste 22 Sudoeste 0 997.3 -- 85
2021-02-01 22:00:00 13.2 13 Oeste 23 Sudoeste 0 997 -- 84
2021-02-01 21:00:00 13.7 10 Sudoeste 15 Oeste 0 996.7 -- 82
2021-02-01 20:00:00 13.5 6 Oeste 13 Sudoeste 0 996.3 -- 80
2021-02-01 19:00:00 14.4 8 Oeste 20 Oeste 0 995.7 -- 72
2021-02-01 18:00:00 16 14 Oeste 27 Oeste 0 995.5 -- 62
2021-02-01 17:00:00 16.7 20 Oeste 28 Oeste 0 995.3 -- 58
2021-02-01 16:00:00 18 13 Oeste 27 Sudoeste 0 995.1 -- 54
2021-02-01 15:00:00 16.7 15 Oeste 28 Sudoeste 0 995.4 -- 56
2021-02-01 14:00:00 17 17 Oeste 26 Oeste 0 995.7 -- 55
2021-02-01 13:00:00 15 12 Noroeste 24 Noroeste 0 996.6 -- 66
2021-02-01 12:00:00 14.9 15 Noroeste 25 Oeste 0 996.7 -- 70
2021-02-01 11:00:00 15 12 Oeste 19 Oeste 0 996.6 -- 80
2021-02-01 10:00:00 12.9 11 Oeste 24 Sudoeste 0 996.3 -- 93
2021-02-01 09:00:00 12.8 12 Oeste 23 Sudoeste 0 995.8 -- 94
2021-02-01 08:00:00 12.8 15 Sudoeste 24 Oeste 0 995.3 -- 94
2021-02-01 07:00:00 12.6 9 Oeste 21 Sudoeste 0 994.9 -- 95
2021-02-01 06:00:00 12.9 13 Sudoeste 23 Sudoeste 0 994.6 -- 96
2021-02-01 05:00:00 12.6 10 Oeste 29 Sudoeste 0 994.3 -- 96
2021-02-01 04:00:00 13 12 Sudoeste 24 Sudoeste 0 994.3 -- 96
2021-02-01 03:00:00 12.8 14 Sudoeste 29 Sudoeste 0 994.8 -- 96
2021-02-01 02:00:00 12.7 21 Sudoeste 30 Sudoeste 0 994.2 -- 96
2021-02-01 01:00:00 12.5 15 Sudoeste 26 Sudoeste 0.2 994.4 -- 96
2021-02-01 00:00:00 12.5 15 Sudoeste 40 Oeste 0.1 994.1 -- 93